sensor_id;sensor_type;location;lat;lon;timestamp;P1;durP1;ratioP1;P2;durP2;ratioP2
74528;SDS011;63009;52.584;5.932;2024-02-21T00:01:33;13.77;;;3.92;;
74528;SDS011;63009;52.584;5.932;2024-02-21T00:03:59;12.45;;;3.63;;
74528;SDS011;63009;52.584;5.932;2024-02-21T00:06:24;11.90;;;3.13;;
74528;SDS011;63009;52.584;5.932;2024-02-21T00:08:51;9.98;;;2.80;;
74528;SDS011;63009;52.584;5.932;2024-02-21T00:11:16;15.40;;;3.08;;
74528;SDS011;63009;52.584;5.932;2024-02-21T00:13:41;12.30;;;2.72;;
74528;SDS011;63009;52.584;5.932;2024-02-21T00:16:07;16.35;;;3.42;;
74528;SDS011;63009;52.584;5.932;2024-02-21T00:18:35;17.05;;;3.22;;
74528;SDS011;63009;52.584;5.932;2024-02-21T00:21:01;14.63;;;3.97;;
74528;SDS011;63009;52.584;5.932;2024-02-21T00:23:26;11.23;;;2.85;;
74528;SDS011;63009;52.584;5.932;2024-02-21T00:25:53;13.63;;;3.25;;
74528;SDS011;63009;52.584;5.932;2024-02-21T00:28:18;10.93;;;2.92;;
74528;SDS011;63009;52.584;5.932;2024-02-21T00:30:44;10.68;;;3.35;;
74528;SDS011;63009;52.584;5.932;2024-02-21T00:33:09;10.52;;;3.35;;
74528;SDS011;63009;52.584;5.932;2024-02-21T00:35:34;16.20;;;3.47;;
74528;SDS011;63009;52.584;5.932;2024-02-21T00:38:00;14.20;;;2.88;;
74528;SDS011;63009;52.584;5.932;2024-02-21T00:40:28;13.13;;;3.33;;
74528;SDS011;63009;52.584;5.932;2024-02-21T00:42:53;15.80;;;4.10;;
74528;SDS011;63009;52.584;5.932;2024-02-21T00:45:18;13.70;;;3.63;;
74528;SDS011;63009;52.584;5.932;2024-02-21T00:47:46;12.75;;;4.15;;
74528;SDS011;63009;52.584;5.932;2024-02-21T00:50:11;16.80;;;4.10;;
74528;SDS011;63009;52.584;5.932;2024-02-21T00:52:37;18.45;;;4.10;;
74528;SDS011;63009;52.584;5.932;2024-02-21T00:55:02;14.23;;;2.97;;
74528;SDS011;63009;52.584;5.932;2024-02-21T00:57:29;10.50;;;3.95;;
74528;SDS011;63009;52.584;5.932;2024-02-21T00:59:54;17.25;;;4.40;;
74528;SDS011;63009;52.584;5.932;2024-02-21T01:02:20;15.23;;;4.05;;
74528;SDS011;63009;52.584;5.932;2024-02-21T01:04:45;12.13;;;3.10;;
74528;SDS011;63009;52.584;5.932;2024-02-21T01:07:10;13.27;;;4.03;;
74528;SDS011;63009;52.584;5.932;2024-02-21T01:09:36;19.35;;;4.15;;
74528;SDS011;63009;52.584;5.932;2024-02-21T01:12:01;15.90;;;4.35;;
74528;SDS011;63009;52.584;5.932;2024-02-21T01:14:26;12.63;;;3.90;;
74528;SDS011;63009;52.584;5.932;2024-02-21T01:16:52;16.00;;;4.45;;
74528;SDS011;63009;52.584;5.932;2024-02-21T01:19:18;13.27;;;3.72;;
74528;SDS011;63009;52.584;5.932;2024-02-21T01:21:43;15.23;;;3.92;;
74528;SDS011;63009;52.584;5.932;2024-02-21T01:24:09;15.63;;;3.53;;
74528;SDS011;63009;52.584;5.932;2024-02-21T01:26:34;15.18;;;3.72;;
74528;SDS011;63009;52.584;5.932;2024-02-21T01:28:59;17.38;;;5.13;;
74528;SDS011;63009;52.584;5.932;2024-02-21T01:31:25;14.13;;;3.45;;
74528;SDS011;63009;52.584;5.932;2024-02-21T01:33:50;20.92;;;3.90;;
74528;SDS011;63009;52.584;5.932;2024-02-21T01:36:15;13.50;;;3.60;;
74528;SDS011;63009;52.584;5.932;2024-02-21T01:38:41;13.63;;;3.40;;
74528;SDS011;63009;52.584;5.932;2024-02-21T01:41:06;14.65;;;3.60;;
74528;SDS011;63009;52.584;5.932;2024-02-21T01:43:31;14.63;;;3.67;;
74528;SDS011;63009;52.584;5.932;2024-02-21T01:45:57;16.38;;;3.90;;
74528;SDS011;63009;52.584;5.932;2024-02-21T01:48:23;17.58;;;4.65;;
74528;SDS011;63009;52.584;5.932;2024-02-21T01:50:49;16.85;;;4.90;;
74528;SDS011;63009;52.584;5.932;2024-02-21T01:53:16;15.85;;;3.70;;
74528;SDS011;63009;52.584;5.932;2024-02-21T01:55:45;13.85;;;3.97;;
74528;SDS011;63009;52.584;5.932;2024-02-21T01:58:12;13.40;;;3.58;;
74528;SDS011;63009;52.584;5.932;2024-02-21T02:00:38;13.50;;;4.10;;
74528;SDS011;63009;52.584;5.932;2024-02-21T02:03:09;14.73;;;3.40;;
74528;SDS011;63009;52.584;5.932;2024-02-21T02:05:41;16.77;;;4.00;;
74528;SDS011;63009;52.584;5.932;2024-02-21T02:08:11;14.35;;;3.83;;
74528;SDS011;63009;52.584;5.932;2024-02-21T02:10:55;14.80;;;3.63;;
74528;SDS011;63009;52.584;5.932;2024-02-21T02:13:20;11.65;;;3.00;;
74528;SDS011;63009;52.584;5.932;2024-02-21T02:15:47;10.38;;;2.85;;
74528;SDS011;63009;52.584;5.932;2024-02-21T02:18:14;12.45;;;3.75;;
74528;SDS011;63009;52.584;5.932;2024-02-21T02:20:40;17.60;;;3.72;;
74528;SDS011;63009;52.584;5.932;2024-02-21T02:25:43;13.43;;;3.33;;
74528;SDS011;63009;52.584;5.932;2024-02-21T02:28:14;16.13;;;3.38;;
74528;SDS011;63009;52.584;5.932;2024-02-21T02:30:39;15.27;;;3.83;;
74528;SDS011;63009;52.584;5.932;2024-02-21T02:33:05;14.23;;;2.95;;
74528;SDS011;63009;52.584;5.932;2024-02-21T02:35:31;17.15;;;3.75;;
74528;SDS011;63009;52.584;5.932;2024-02-21T02:37:57;13.57;;;3.33;;
74528;SDS011;63009;52.584;5.932;2024-02-21T02:40:23;16.50;;;3.10;;
74528;SDS011;63009;52.584;5.932;2024-02-21T02:42:49;14.38;;;3.50;;
74528;SDS011;63009;52.584;5.932;2024-02-21T02:45:16;15.93;;;3.30;;
74528;SDS011;63009;52.584;5.932;2024-02-21T02:47:43;12.13;;;3.30;;
74528;SDS011;63009;52.584;5.932;2024-02-21T02:50:09;17.13;;;3.45;;
74528;SDS011;63009;52.584;5.932;2024-02-21T02:52:35;12.88;;;3.33;;
74528;SDS011;63009;52.584;5.932;2024-02-21T02:55:00;15.52;;;3.00;;
74528;SDS011;63009;52.584;5.932;2024-02-21T02:57:26;16.60;;;3.47;;
74528;SDS011;63009;52.584;5.932;2024-02-21T02:59:52;13.10;;;3.45;;
74528;SDS011;63009;52.584;5.932;2024-02-21T03:02:23;16.85;;;3.88;;
74528;SDS011;63009;52.584;5.932;2024-02-21T03:04:49;13.65;;;3.22;;
74528;SDS011;63009;52.584;5.932;2024-02-21T03:07:14;18.90;;;4.05;;
74528;SDS011;63009;52.584;5.932;2024-02-21T03:09:41;19.38;;;4.30;;
74528;SDS011;63009;52.584;5.932;2024-02-21T03:12:10;13.52;;;3.00;;
74528;SDS011;63009;52.584;5.932;2024-02-21T03:14:35;12.88;;;3.38;;
74528;SDS011;63009;52.584;5.932;2024-02-21T03:17:01;16.70;;;3.20;;
74528;SDS011;63009;52.584;5.932;2024-02-21T03:19:27;15.35;;;4.35;;
74528;SDS011;63009;52.584;5.932;2024-02-21T03:21:53;12.65;;;3.47;;
74528;SDS011;63009;52.584;5.932;2024-02-21T03:24:19;18.88;;;6.25;;
74528;SDS011;63009;52.584;5.932;2024-02-21T03:26:44;15.20;;;4.10;;
74528;SDS011;63009;52.584;5.932;2024-02-21T03:29:12;14.93;;;4.15;;
74528;SDS011;63009;52.584;5.932;2024-02-21T03:31:37;16.42;;;4.40;;
74528;SDS011;63009;52.584;5.932;2024-02-21T03:34:03;19.10;;;4.80;;
74528;SDS011;63009;52.584;5.932;2024-02-21T03:36:28;15.00;;;4.15;;
74528;SDS011;63009;52.584;5.932;2024-02-21T03:38:54;19.50;;;4.68;;
74528;SDS011;63009;52.584;5.932;2024-02-21T03:41:20;22.85;;;5.10;;
74528;SDS011;63009;52.584;5.932;2024-02-21T03:43:45;15.85;;;4.88;;
74528;SDS011;63009;52.584;5.932;2024-02-21T03:46:11;16.02;;;4.88;;
74528;SDS011;63009;52.584;5.932;2024-02-21T03:48:36;14.98;;;4.65;;
74528;SDS011;63009;52.584;5.932;2024-02-21T03:51:02;19.90;;;5.07;;
74528;SDS011;63009;52.584;5.932;2024-02-21T03:53:27;19.75;;;5.28;;
74528;SDS011;63009;52.584;5.932;2024-02-21T03:55:53;21.27;;;6.07;;
74528;SDS011;63009;52.584;5.932;2024-02-21T03:58:19;18.73;;;5.50;;
74528;SDS011;63009;52.584;5.932;2024-02-21T04:00:44;16.73;;;4.43;;
74528;SDS011;63009;52.584;5.932;2024-02-21T04:03:12;14.90;;;4.68;;
74528;SDS011;63009;52.584;5.932;2024-02-21T04:05:38;19.48;;;4.15;;
74528;SDS011;63009;52.584;5.932;2024-02-21T04:08:06;16.80;;;5.18;;
74528;SDS011;63009;52.584;5.932;2024-02-21T04:10:33;18.38;;;4.07;;
74528;SDS011;63009;52.584;5.932;2024-02-21T04:12:58;16.75;;;4.10;;
74528;SDS011;63009;52.584;5.932;2024-02-21T04:15:24;15.13;;;4.72;;
74528;SDS011;63009;52.584;5.932;2024-02-21T04:17:49;19.35;;;5.25;;
74528;SDS011;63009;52.584;5.932;2024-02-21T04:20:16;13.25;;;4.60;;
74528;SDS011;63009;52.584;5.932;2024-02-21T04:22:45;17.88;;;4.20;;
74528;SDS011;63009;52.584;5.932;2024-02-21T04:25:11;16.98;;;4.70;;
74528;SDS011;63009;52.584;5.932;2024-02-21T04:27:39;16.65;;;4.60;;
74528;SDS011;63009;52.584;5.932;2024-02-21T04:34:57;18.75;;;4.22;;
74528;SDS011;63009;52.584;5.932;2024-02-21T04:37:22;15.45;;;4.35;;
74528;SDS011;63009;52.584;5.932;2024-02-21T04:39:48;18.38;;;4.82;;
74528;SDS011;63009;52.584;5.932;2024-02-21T04:42:14;15.50;;;4.15;;
74528;SDS011;63009;52.584;5.932;2024-02-21T04:44:40;15.82;;;4.93;;
74528;SDS011;63009;52.584;5.932;2024-02-21T04:47:06;19.77;;;4.60;;
74528;SDS011;63009;52.584;5.932;2024-02-21T04:49:32;17.08;;;3.78;;
74528;SDS011;63009;52.584;5.932;2024-02-21T04:51:58;18.23;;;4.47;;
74528;SDS011;63009;52.584;5.932;2024-02-21T04:54:23;15.48;;;4.47;;
74528;SDS011;63009;52.584;5.932;2024-02-21T04:56:48;20.52;;;4.60;;
74528;SDS011;63009;52.584;5.932;2024-02-21T04:59:14;15.77;;;4.78;;
74528;SDS011;63009;52.584;5.932;2024-02-21T05:01:39;17.00;;;5.00;;
74528;SDS011;63009;52.584;5.932;2024-02-21T05:04:05;23.02;;;4.32;;
74528;SDS011;63009;52.584;5.932;2024-02-21T05:06:31;14.60;;;4.70;;
74528;SDS011;63009;52.584;5.932;2024-02-21T05:08:56;17.27;;;3.67;;
74528;SDS011;63009;52.584;5.932;2024-02-21T05:11:22;13.60;;;4.68;;
74528;SDS011;63009;52.584;5.932;2024-02-21T05:13:48;22.23;;;4.40;;
74528;SDS011;63009;52.584;5.932;2024-02-21T05:16:13;15.27;;;5.47;;
74528;SDS011;63009;52.584;5.932;2024-02-21T05:18:40;17.35;;;4.72;;
74528;SDS011;63009;52.584;5.932;2024-02-21T05:21:05;17.42;;;5.78;;
74528;SDS011;63009;52.584;5.932;2024-02-21T05:23:31;14.85;;;5.50;;
74528;SDS011;63009;52.584;5.932;2024-02-21T05:25:57;16.10;;;5.55;;
74528;SDS011;63009;52.584;5.932;2024-02-21T05:28:22;15.27;;;5.43;;
74528;SDS011;63009;52.584;5.932;2024-02-21T05:30:48;19.90;;;5.32;;
74528;SDS011;63009;52.584;5.932;2024-02-21T05:33:13;16.30;;;5.65;;
74528;SDS011;63009;52.584;5.932;2024-02-21T05:35:46;14.50;;;4.57;;
74528;SDS011;63009;52.584;5.932;2024-02-21T05:38:11;14.80;;;6.15;;
74528;SDS011;63009;52.584;5.932;2024-02-21T05:40:37;15.85;;;5.93;;
74528;SDS011;63009;52.584;5.932;2024-02-21T05:43:02;21.67;;;6.03;;
74528;SDS011;63009;52.584;5.932;2024-02-21T05:45:31;14.27;;;5.07;;
74528;SDS011;63009;52.584;5.932;2024-02-21T05:47:56;14.63;;;5.38;;
74528;SDS011;63009;52.584;5.932;2024-02-21T05:50:22;19.30;;;5.40;;
74528;SDS011;63009;52.584;5.932;2024-02-21T05:52:48;18.63;;;5.93;;
74528;SDS011;63009;52.584;5.932;2024-02-21T05:55:17;15.02;;;6.00;;
74528;SDS011;63009;52.584;5.932;2024-02-21T05:57:43;17.08;;;6.57;;
74528;SDS011;63009;52.584;5.932;2024-02-21T06:00:08;18.60;;;6.20;;
74528;SDS011;63009;52.584;5.932;2024-02-21T06:02:34;18.58;;;6.57;;
74528;SDS011;63009;52.584;5.932;2024-02-21T06:04:59;20.42;;;6.88;;
74528;SDS011;63009;52.584;5.932;2024-02-21T06:07:24;18.75;;;6.90;;
74528;SDS011;63009;52.584;5.932;2024-02-21T06:09:50;17.35;;;6.60;;
74528;SDS011;63009;52.584;5.932;2024-02-21T06:12:15;17.05;;;8.02;;
74528;SDS011;63009;52.584;5.932;2024-02-21T06:14:40;16.63;;;8.20;;
74528;SDS011;63009;52.584;5.932;2024-02-21T06:17:06;22.33;;;8.48;;
74528;SDS011;63009;52.584;5.932;2024-02-21T06:19:31;19.55;;;7.50;;
74528;SDS011;63009;52.584;5.932;2024-02-21T06:21:57;20.95;;;7.80;;
74528;SDS011;63009;52.584;5.932;2024-02-21T06:24:24;23.88;;;8.10;;
74528;SDS011;63009;52.584;5.932;2024-02-21T06:26:50;19.48;;;8.27;;
74528;SDS011;63009;52.584;5.932;2024-02-21T06:29:15;23.77;;;7.63;;
74528;SDS011;63009;52.584;5.932;2024-02-21T06:31:41;20.20;;;7.75;;
74528;SDS011;63009;52.584;5.932;2024-02-21T06:34:06;17.80;;;8.02;;
74528;SDS011;63009;52.584;5.932;2024-02-21T06:36:31;18.30;;;8.15;;
74528;SDS011;63009;52.584;5.932;2024-02-21T06:38:58;22.02;;;7.57;;
74528;SDS011;63009;52.584;5.932;2024-02-21T06:41:24;21.00;;;8.68;;
74528;SDS011;63009;52.584;5.932;2024-02-21T06:43:50;16.95;;;7.75;;
74528;SDS011;63009;52.584;5.932;2024-02-21T06:46:49;20.90;;;8.63;;
74528;SDS011;63009;52.584;5.932;2024-02-21T06:49:21;18.77;;;7.68;;
74528;SDS011;63009;52.584;5.932;2024-02-21T06:51:50;20.83;;;9.15;;
74528;SDS011;63009;52.584;5.932;2024-02-21T06:54:18;20.08;;;7.32;;
74528;SDS011;63009;52.584;5.932;2024-02-21T06:56:43;19.08;;;8.48;;
74528;SDS011;63009;52.584;5.932;2024-02-21T06:59:16;24.15;;;7.45;;
74528;SDS011;63009;52.584;5.932;2024-02-21T07:01:48;18.15;;;8.85;;
74528;SDS011;63009;52.584;5.932;2024-02-21T07:04:15;27.55;;;8.73;;
74528;SDS011;63009;52.584;5.932;2024-02-21T07:06:40;19.77;;;8.43;;
74528;SDS011;63009;52.584;5.932;2024-02-21T07:09:06;19.70;;;8.25;;
74528;SDS011;63009;52.584;5.932;2024-02-21T07:11:34;17.77;;;7.78;;
74528;SDS011;63009;52.584;5.932;2024-02-21T07:13:59;20.25;;;7.95;;
74528;SDS011;63009;52.584;5.932;2024-02-21T07:16:25;19.25;;;7.20;;
74528;SDS011;63009;52.584;5.932;2024-02-21T07:18:51;19.42;;;7.55;;
74528;SDS011;63009;52.584;5.932;2024-02-21T07:21:17;19.80;;;8.38;;
74528;SDS011;63009;52.584;5.932;2024-02-21T07:23:42;19.33;;;8.25;;
74528;SDS011;63009;52.584;5.932;2024-02-21T07:26:07;17.58;;;8.70;;
74528;SDS011;63009;52.584;5.932;2024-02-21T07:28:33;18.98;;;7.28;;
74528;SDS011;63009;52.584;5.932;2024-02-21T07:30:59;18.73;;;7.50;;
74528;SDS011;63009;52.584;5.932;2024-02-21T07:33:25;17.88;;;7.43;;
74528;SDS011;63009;52.584;5.932;2024-02-21T07:35:50;17.02;;;8.40;;
74528;SDS011;63009;52.584;5.932;2024-02-21T07:38:18;16.58;;;7.20;;
74528;SDS011;63009;52.584;5.932;2024-02-21T07:40:45;15.90;;;6.97;;
74528;SDS011;63009;52.584;5.932;2024-02-21T07:43:10;14.85;;;7.35;;
74528;SDS011;63009;52.584;5.932;2024-02-21T07:45:35;17.58;;;7.45;;
74528;SDS011;63009;52.584;5.932;2024-02-21T07:48:01;17.08;;;7.47;;
74528;SDS011;63009;52.584;5.932;2024-02-21T07:50:27;18.00;;;7.80;;
74528;SDS011;63009;52.584;5.932;2024-02-21T07:52:52;17.08;;;8.35;;
74528;SDS011;63009;52.584;5.932;2024-02-21T07:55:18;15.65;;;7.45;;
74528;SDS011;63009;52.584;5.932;2024-02-21T07:57:43;19.13;;;8.27;;
74528;SDS011;63009;52.584;5.932;2024-02-21T08:00:09;17.67;;;8.45;;
74528;SDS011;63009;52.584;5.932;2024-02-21T08:02:38;18.58;;;8.27;;
74528;SDS011;63009;52.584;5.932;2024-02-21T08:05:04;20.00;;;8.20;;
74528;SDS011;63009;52.584;5.932;2024-02-21T08:07:29;22.15;;;9.00;;
74528;SDS011;63009;52.584;5.932;2024-02-21T08:09:55;23.38;;;9.35;;
74528;SDS011;63009;52.584;5.932;2024-02-21T08:12:21;18.08;;;8.93;;
74528;SDS011;63009;52.584;5.932;2024-02-21T08:14:46;17.90;;;8.85;;
74528;SDS011;63009;52.584;5.932;2024-02-21T08:17:12;20.27;;;10.45;;
74528;SDS011;63009;52.584;5.932;2024-02-21T08:19:37;19.80;;;9.27;;
74528;SDS011;63009;52.584;5.932;2024-02-21T08:22:03;21.90;;;10.38;;
74528;SDS011;63009;52.584;5.932;2024-02-21T08:24:28;20.83;;;11.32;;
74528;SDS011;63009;52.584;5.932;2024-02-21T08:26:53;24.65;;;11.68;;
74528;SDS011;63009;52.584;5.932;2024-02-21T08:29:19;27.65;;;11.93;;
74528;SDS011;63009;52.584;5.932;2024-02-21T08:31:44;22.42;;;11.80;;
74528;SDS011;63009;52.584;5.932;2024-02-21T08:34:09;21.95;;;11.65;;
74528;SDS011;63009;52.584;5.932;2024-02-21T08:36:35;20.97;;;11.23;;
74528;SDS011;63009;52.584;5.932;2024-02-21T08:39:02;23.67;;;11.90;;
74528;SDS011;63009;52.584;5.932;2024-02-21T08:41:30;26.45;;;12.75;;
74528;SDS011;63009;52.584;5.932;2024-02-21T08:43:59;22.20;;;11.88;;
74528;SDS011;63009;52.584;5.932;2024-02-21T08:46:24;25.92;;;11.95;;
74528;SDS011;63009;52.584;5.932;2024-02-21T08:48:50;28.25;;;12.48;;
74528;SDS011;63009;52.584;5.932;2024-02-21T08:51:16;26.70;;;12.27;;
74528;SDS011;63009;52.584;5.932;2024-02-21T08:53:42;26.02;;;13.15;;
74528;SDS011;63009;52.584;5.932;2024-02-21T08:56:08;27.27;;;13.77;;
74528;SDS011;63009;52.584;5.932;2024-02-21T08:58:34;25.75;;;11.10;;
74528;SDS011;63009;52.584;5.932;2024-02-21T09:01:01;25.67;;;12.35;;
74528;SDS011;63009;52.584;5.932;2024-02-21T09:03:26;27.50;;;11.60;;
74528;SDS011;63009;52.584;5.932;2024-02-21T09:05:51;26.17;;;13.25;;
74528;SDS011;63009;52.584;5.932;2024-02-21T09:08:17;23.27;;;12.40;;
74528;SDS011;63009;52.584;5.932;2024-02-21T09:10:43;25.33;;;12.85;;
74528;SDS011;63009;52.584;5.932;2024-02-21T09:13:08;26.90;;;11.45;;
74528;SDS011;63009;52.584;5.932;2024-02-21T09:15:34;24.07;;;12.03;;
74528;SDS011;63009;52.584;5.932;2024-02-21T09:17:59;24.85;;;11.10;;
74528;SDS011;63009;52.584;5.932;2024-02-21T09:20:25;21.85;;;11.02;;
74528;SDS011;63009;52.584;5.932;2024-02-21T09:22:50;22.67;;;10.32;;
74528;SDS011;63009;52.584;5.932;2024-02-21T09:25:16;21.88;;;11.30;;
74528;SDS011;63009;52.584;5.932;2024-02-21T09:27:43;25.23;;;10.82;;
74528;SDS011;63009;52.584;5.932;2024-02-21T09:30:09;20.75;;;10.98;;
74528;SDS011;63009;52.584;5.932;2024-02-21T09:32:35;25.02;;;10.65;;
74528;SDS011;63009;52.584;5.932;2024-02-21T09:35:01;22.95;;;9.82;;
74528;SDS011;63009;52.584;5.932;2024-02-21T09:37:26;20.42;;;10.52;;
74528;SDS011;63009;52.584;5.932;2024-02-21T09:39:52;21.48;;;9.82;;
74528;SDS011;63009;52.584;5.932;2024-02-21T09:42:20;21.67;;;10.05;;
74528;SDS011;63009;52.584;5.932;2024-02-21T09:44:49;23.13;;;10.52;;
74528;SDS011;63009;52.584;5.932;2024-02-21T09:47:22;20.75;;;10.73;;
74528;SDS011;63009;52.584;5.932;2024-02-21T09:52:22;18.42;;;9.57;;
74528;SDS011;63009;52.584;5.932;2024-02-21T09:54:49;17.35;;;9.63;;
74528;SDS011;63009;52.584;5.932;2024-02-21T09:57:17;18.17;;;8.82;;
74528;SDS011;63009;52.584;5.932;2024-02-21T09:59:47;16.45;;;8.68;;
74528;SDS011;63009;52.584;5.932;2024-02-21T10:02:15;18.25;;;8.32;;
74528;SDS011;63009;52.584;5.932;2024-02-21T10:04:40;18.63;;;8.25;;
74528;SDS011;63009;52.584;5.932;2024-02-21T10:07:06;15.55;;;8.20;;
74528;SDS011;63009;52.584;5.932;2024-02-21T10:09:32;18.33;;;8.68;;
74528;SDS011;63009;52.584;5.932;2024-02-21T10:12:08;17.15;;;8.30;;
74528;SDS011;63009;52.584;5.932;2024-02-21T10:14:35;18.13;;;8.63;;
74528;SDS011;63009;52.584;5.932;2024-02-21T10:17:00;17.30;;;7.55;;
74528;SDS011;63009;52.584;5.932;2024-02-21T10:19:27;16.67;;;8.32;;
74528;SDS011;63009;52.584;5.932;2024-02-21T10:22:03;19.58;;;8.15;;
74528;SDS011;63009;52.584;5.932;2024-02-21T10:26:59;16.40;;;7.93;;
74528;SDS011;63009;52.584;5.932;2024-02-21T10:29:31;15.60;;;7.40;;
74528;SDS011;63009;52.584;5.932;2024-02-21T10:34:41;14.13;;;6.97;;
74528;SDS011;63009;52.584;5.932;2024-02-21T10:37:09;18.00;;;7.38;;
74528;SDS011;63009;52.584;5.932;2024-02-21T10:39:38;15.48;;;7.47;;
74528;SDS011;63009;52.584;5.932;2024-02-21T10:42:07;14.98;;;7.15;;
74528;SDS011;63009;52.584;5.932;2024-02-21T10:44:37;18.05;;;7.40;;
74528;SDS011;63009;52.584;5.932;2024-02-21T10:47:08;17.95;;;7.95;;
74528;SDS011;63009;52.584;5.932;2024-02-21T10:49:36;16.52;;;7.05;;
74528;SDS011;63009;52.584;5.932;2024-02-21T10:54:45;17.98;;;7.45;;
74528;SDS011;63009;52.584;5.932;2024-02-21T10:57:15;17.08;;;7.82;;
74528;SDS011;63009;52.584;5.932;2024-02-21T10:59:42;13.40;;;6.78;;
74528;SDS011;63009;52.584;5.932;2024-02-21T11:02:09;15.02;;;5.95;;
74528;SDS011;63009;52.584;5.932;2024-02-21T11:04:35;14.13;;;6.13;;
74528;SDS011;63009;52.584;5.932;2024-02-21T11:07:03;13.98;;;6.07;;
74528;SDS011;63009;52.584;5.932;2024-02-21T11:09:30;16.40;;;6.38;;
74528;SDS011;63009;52.584;5.932;2024-02-21T11:12:03;14.20;;;5.90;;
74528;SDS011;63009;52.584;5.932;2024-02-21T11:14:30;15.55;;;5.93;;
74528;SDS011;63009;52.584;5.932;2024-02-21T11:17:00;14.75;;;6.30;;
74528;SDS011;63009;52.584;5.932;2024-02-21T11:19:27;13.13;;;5.43;;
74528;SDS011;63009;52.584;5.932;2024-02-21T11:21:55;16.63;;;6.93;;
74528;SDS011;63009;52.584;5.932;2024-02-21T11:24:40;13.30;;;6.07;;
74528;SDS011;63009;52.584;5.932;2024-02-21T11:27:09;14.23;;;5.47;;
74528;SDS011;63009;52.584;5.932;2024-02-21T11:29:44;13.68;;;5.57;;
74528;SDS011;63009;52.584;5.932;2024-02-21T11:32:14;12.57;;;5.18;;
74528;SDS011;63009;52.584;5.932;2024-02-21T11:34:40;11.07;;;4.45;;
74528;SDS011;63009;52.584;5.932;2024-02-21T11:37:13;10.00;;;4.22;;
74528;SDS011;63009;52.584;5.932;2024-02-21T11:39:42;11.60;;;5.30;;
74528;SDS011;63009;52.584;5.932;2024-02-21T11:42:08;12.88;;;4.25;;
74528;SDS011;63009;52.584;5.932;2024-02-21T11:44:34;9.80;;;4.85;;
74528;SDS011;63009;52.584;5.932;2024-02-21T11:47:08;12.88;;;4.53;;
74528;SDS011;63009;52.584;5.932;2024-02-21T11:49:38;11.68;;;4.82;;
74528;SDS011;63009;52.584;5.932;2024-02-21T11:52:35;10.60;;;4.50;;
74528;SDS011;63009;52.584;5.932;2024-02-21T11:55:01;12.07;;;5.00;;
74528;SDS011;63009;52.584;5.932;2024-02-21T11:57:29;10.63;;;4.45;;
74528;SDS011;63009;52.584;5.932;2024-02-21T11:59:55;11.77;;;4.70;;
74528;SDS011;63009;52.584;5.932;2024-02-21T12:02:20;12.43;;;4.60;;
74528;SDS011;63009;52.584;5.932;2024-02-21T12:04:46;10.95;;;4.45;;
74528;SDS011;63009;52.584;5.932;2024-02-21T12:07:14;10.25;;;4.90;;
74528;SDS011;63009;52.584;5.932;2024-02-21T12:09:41;10.60;;;4.65;;
74528;SDS011;63009;52.584;5.932;2024-02-21T12:12:06;9.60;;;4.25;;
74528;SDS011;63009;52.584;5.932;2024-02-21T12:14:32;9.57;;;4.20;;
74528;SDS011;63009;52.584;5.932;2024-02-21T12:16:59;14.88;;;4.20;;
74528;SDS011;63009;52.584;5.932;2024-02-21T12:19:28;11.00;;;4.53;;
74528;SDS011;63009;52.584;5.932;2024-02-21T12:21:54;10.57;;;4.50;;
74528;SDS011;63009;52.584;5.932;2024-02-21T12:24:23;9.68;;;4.43;;
74528;SDS011;63009;52.584;5.932;2024-02-21T12:26:51;9.82;;;4.32;;
74528;SDS011;63009;52.584;5.932;2024-02-21T12:29:20;9.23;;;3.90;;
74528;SDS011;63009;52.584;5.932;2024-02-21T12:31:57;10.40;;;4.10;;
74528;SDS011;63009;52.584;5.932;2024-02-21T12:34:23;10.40;;;4.85;;
74528;SDS011;63009;52.584;5.932;2024-02-21T12:36:49;10.65;;;5.38;;
74528;SDS011;63009;52.584;5.932;2024-02-21T12:39:15;10.63;;;5.00;;
74528;SDS011;63009;52.584;5.932;2024-02-21T12:41:43;10.70;;;5.03;;
74528;SDS011;63009;52.584;5.932;2024-02-21T12:44:09;10.73;;;4.82;;
74528;SDS011;63009;52.584;5.932;2024-02-21T12:46:36;9.70;;;4.60;;
74528;SDS011;63009;52.584;5.932;2024-02-21T12:49:02;11.10;;;4.80;;
74528;SDS011;63009;52.584;5.932;2024-02-21T12:51:28;12.77;;;5.20;;
74528;SDS011;63009;52.584;5.932;2024-02-21T12:53:54;10.80;;;4.50;;
74528;SDS011;63009;52.584;5.932;2024-02-21T12:56:20;10.57;;;5.28;;
74528;SDS011;63009;52.584;5.932;2024-02-21T12:58:46;13.15;;;5.25;;
74528;SDS011;63009;52.584;5.932;2024-02-21T13:01:11;10.88;;;4.82;;
74528;SDS011;63009;52.584;5.932;2024-02-21T13:03:37;11.63;;;5.28;;
74528;SDS011;63009;52.584;5.932;2024-02-21T13:06:03;11.40;;;5.45;;
74528;SDS011;63009;52.584;5.932;2024-02-21T13:08:29;13.75;;;6.47;;
74528;SDS011;63009;52.584;5.932;2024-02-21T13:10:54;10.30;;;5.00;;
74528;SDS011;63009;52.584;5.932;2024-02-21T13:13:20;12.43;;;5.38;;
74528;SDS011;63009;52.584;5.932;2024-02-21T13:15:45;11.27;;;4.75;;
74528;SDS011;63009;52.584;5.932;2024-02-21T13:18:10;12.93;;;5.32;;
74528;SDS011;63009;52.584;5.932;2024-02-21T13:20:36;12.30;;;5.72;;
74528;SDS011;63009;52.584;5.932;2024-02-21T13:23:02;11.40;;;5.32;;
74528;SDS011;63009;52.584;5.932;2024-02-21T13:25:28;11.43;;;5.28;;
74528;SDS011;63009;52.584;5.932;2024-02-21T13:27:54;12.02;;;4.60;;
74528;SDS011;63009;52.584;5.932;2024-02-21T13:30:19;11.85;;;4.82;;
74528;SDS011;63009;52.584;5.932;2024-02-21T13:32:44;13.52;;;4.82;;
74528;SDS011;63009;52.584;5.932;2024-02-21T13:35:13;11.05;;;4.80;;
74528;SDS011;63009;52.584;5.932;2024-02-21T13:37:39;12.77;;;5.25;;
74528;SDS011;63009;52.584;5.932;2024-02-21T13:40:05;12.65;;;5.65;;
74528;SDS011;63009;52.584;5.932;2024-02-21T13:42:36;11.50;;;5.05;;
74528;SDS011;63009;52.584;5.932;2024-02-21T13:45:02;9.70;;;4.68;;
74528;SDS011;63009;52.584;5.932;2024-02-21T13:47:30;10.95;;;5.00;;
74528;SDS011;63009;52.584;5.932;2024-02-21T13:49:56;10.00;;;4.82;;
74528;SDS011;63009;52.584;5.932;2024-02-21T13:52:21;11.43;;;5.18;;
74528;SDS011;63009;52.584;5.932;2024-02-21T13:54:47;11.68;;;4.75;;
74528;SDS011;63009;52.584;5.932;2024-02-21T13:57:13;11.88;;;4.68;;
74528;SDS011;63009;52.584;5.932;2024-02-21T13:59:39;11.32;;;4.50;;
74528;SDS011;63009;52.584;5.932;2024-02-21T14:02:05;10.93;;;4.50;;
74528;SDS011;63009;52.584;5.932;2024-02-21T14:04:33;10.65;;;5.38;;
74528;SDS011;63009;52.584;5.932;2024-02-21T14:06:58;11.13;;;4.50;;
74528;SDS011;63009;52.584;5.932;2024-02-21T14:09:27;10.90;;;4.57;;
74528;SDS011;63009;52.584;5.932;2024-02-21T14:11:55;11.65;;;4.50;;
74528;SDS011;63009;52.584;5.932;2024-02-21T14:14:21;10.40;;;4.63;;
74528;SDS011;63009;52.584;5.932;2024-02-21T14:16:46;11.57;;;4.28;;
74528;SDS011;63009;52.584;5.932;2024-02-21T14:19:14;11.32;;;4.88;;
74528;SDS011;63009;52.584;5.932;2024-02-21T14:21:40;11.13;;;5.15;;
74528;SDS011;63009;52.584;5.932;2024-02-21T14:24:05;11.80;;;5.47;;
74528;SDS011;63009;52.584;5.932;2024-02-21T14:26:31;11.60;;;5.50;;
74528;SDS011;63009;52.584;5.932;2024-02-21T14:28:57;10.63;;;3.92;;
74528;SDS011;63009;52.584;5.932;2024-02-21T14:31:23;13.70;;;4.75;;
74528;SDS011;63009;52.584;5.932;2024-02-21T14:33:48;10.98;;;4.35;;
74528;SDS011;63009;52.584;5.932;2024-02-21T14:36:13;11.95;;;4.82;;
74528;SDS011;63009;52.584;5.932;2024-02-21T14:38:40;11.63;;;4.78;;
74528;SDS011;63009;52.584;5.932;2024-02-21T14:41:06;12.10;;;4.80;;
74528;SDS011;63009;52.584;5.932;2024-02-21T14:43:32;9.82;;;4.43;;
74528;SDS011;63009;52.584;5.932;2024-02-21T14:45:59;12.00;;;5.22;;
74528;SDS011;63009;52.584;5.932;2024-02-21T14:48:25;11.88;;;5.65;;